Clarksville, Missouri
Current Conditions -  °F | °C
As of 10:15 PM on Friday 24 Oct 2014 (Local Time) from KPPQ Reporting Station
Clear Clear  
Wind Chill: 18°   Ceiling: Unl
Heat Index: 18°   Visibility: 10mi
Dew Point: 13°   Wind: 5mph
Humidity: 74%   Direction: 220°SW
Pressure: 29.98"   Gusts: NA
Location:  39.37°N, 90.91°W
Report Text: KPPQ 250315Z AUTO 22004KT 10SM CLR 18/13 A2998 RMK AO2 T01750128
Loading
Personal Weather Stations






























Interactive Weather Map
Tropical Storm Tracking
New forecast layout! Learn more

10-Day Weather Forecast

Advertisements
Track Severe Weather on mobile